• Join FlightAware (Why Join?)
  • Login
  • US Flag 
05:05AM EDT


 

Airport Tracker/Info


-or-


 

Live Flight TrackerFlight Track Log ✈ TAM3543 ✈ 03-May-2013 ✈ SBEG / MAO - SBBR / BSB

Flight Track Log - Related Links

Times and Time Zones

All times are in EDT time to prevent confusion due to time zone crossing. See the TAM3543 flight status page for this flight to view local times or setup timezone preferences in your user account.

Time Position Orientation Groundspeed Altitude Reporting Facility
EDT Latitude Longitude Course Direction KTS MPH feet Rate Location/Type
03:16AM -5.8744 -57.4627 138° Southeast  Level Estimated
03:17AM -5.9553 -57.3885 138° Southeast  Level Estimated
03:18AM -6.0362 -57.3142 138° Southeast  Level Estimated
03:19AM -6.1171 -57.2400 138° Southeast  Level Estimated
03:20AM -6.1979 -57.1656 138° Southeast  Level Estimated
03:21AM -6.2787 -57.0913 138° Southeast  Level Estimated
03:22AM -6.3595 -57.0170 138° Southeast  Level Estimated
03:23AM -6.4404 -56.9426 138° Southeast  Level Estimated
03:24AM -6.5212 -56.8682 138° Southeast  Level Estimated
03:25AM -6.6020 -56.7938 138° Southeast  Level Estimated
03:26AM -6.6827 -56.7193 138° Southeast  Level Estimated
03:27AM -6.7635 -56.6449 138° Southeast  Level Estimated
03:28AM -6.8443 -56.5704 138° Southeast  Level Estimated
03:29AM -6.9250 -56.4958 138° Southeast  Level Estimated
03:30AM -7.0058 -56.4213 137° Southeast  Level Estimated
03:31AM -7.0865 -56.3467 137° Southeast  Level Estimated
03:32AM -7.1672 -56.2721 137° Southeast  Level Estimated
03:33AM -7.2479 -56.1975 137° Southeast  Level Estimated
03:34AM -7.3286 -56.1228 137° Southeast  Level Estimated
03:35AM -7.4092 -56.0481 137° Southeast  Level Estimated
03:36AM -7.4899 -55.9734 137° Southeast  Level Estimated
03:37AM -7.5706 -55.8987 137° Southeast  Level Estimated
03:38AM -7.6512 -55.8239 137° Southeast  Level Estimated
03:39AM -7.7318 -55.7491 137° Southeast  Level Estimated
03:40AM -7.8124 -55.6743 137° Southeast  Level Estimated
03:41AM -7.8930 -55.5995 137° Southeast  Level Estimated
03:42AM -7.9736 -55.5246 137° Southeast  Level Estimated
03:43AM -8.0542 -55.4497 137° Southeast  Level Estimated
03:44AM -8.1348 -55.3747 137° Southeast  Level Estimated
03:45AM -8.2153 -55.2998 137° Southeast  Level Estimated
03:46AM -8.2958 -55.2248 137° Southeast  Level Estimated
03:47AM -8.3763 -55.1497 137° Southeast  Level Estimated
03:48AM -8.4568 -55.0747 137° Southeast  Level Estimated
03:49AM -8.5373 -54.9996 137° Southeast  Level Estimated
03:50AM -8.6178 -54.9245 137° Southeast  Level Estimated
03:51AM -8.6983 -54.8493 137° Southeast  Level Estimated
03:52AM -8.7787 -54.7741 137° Southeast  Level Estimated
03:53AM -8.8591 -54.6989 137° Southeast  Level Estimated
03:54AM -8.9395 -54.6237 137° Southeast  Level Estimated
03:55AM -9.0199 -54.5484 137° Southeast  Level Estimated
03:56AM -9.1003 -54.4730 137° Southeast  Level Estimated
03:57AM -9.1807 -54.3977 137° Southeast  Level Estimated
03:58AM -9.2610 -54.3223 137° Southeast  Level Estimated
03:59AM -9.3414 -54.2469 137° Southeast  Level Estimated
04:00AM -9.4217 -54.1714 137° Southeast  Level Estimated
04:01AM -9.5020 -54.0959 137° Southeast  Level Estimated
04:02AM -9.5823 -54.0204 137° Southeast  Level Estimated
04:03AM -9.6626 -53.9449 137° Southeast  Level Estimated
04:04AM -9.7428 -53.8693 137° Southeast  Level Estimated
04:05AM -9.8231 -53.7936 137° Southeast  Level Estimated
04:06AM -9.9033 -53.7179 137° Southeast  Level Estimated
04:07AM -9.9835 -53.6422 137° Southeast  Level Estimated
04:08AM -10.0637 -53.5665 137° Southeast  Level Estimated
04:09AM -10.1439 -53.4907 137° Southeast  Level Estimated
04:10AM -10.2240 -53.4149 137° Southeast  Level Estimated
04:11AM -10.3041 -53.3390 137° Southeast  Level Estimated
04:12AM -10.3843 -53.2631 137° Southeast  Level Estimated
04:13AM -10.4644 -53.1872 137° Southeast  Level Estimated
04:14AM -10.5444 -53.1112 137° Southeast  Level Estimated
04:15AM -10.6245 -53.0352 137° Southeast  Level Estimated
04:16AM -10.7046 -52.9591 137° Southeast  Level Estimated
04:17AM -10.7846 -52.8830 137° Southeast  Level Estimated
04:18AM -10.8646 -52.8069 137° Southeast  Level Estimated
04:19AM -10.9446 -52.7307 137° Southeast  Level Estimated
04:20AM -11.0246 -52.6545 137° Southeast  Level Estimated
04:21AM -11.1045 -52.5782 137° Southeast  Level Estimated
04:22AM -11.1844 -52.5019 137° Southeast  Level Estimated
04:23AM -11.2643 -52.4256 137° Southeast  Level Estimated
04:24AM -11.3442 -52.3492 137° Southeast  Level Estimated
04:25AM -11.4241 -52.2728 137° Southeast  Level Estimated
04:26AM -11.5040 -52.1963 137° Southeast  Level Estimated
04:27AM -11.5838 -52.1198 137° Southeast  Level Estimated
04:28AM -11.6636 -52.0432 137° Southeast  Level Estimated
04:29AM -11.7434 -51.9666 137° Southeast  Level Estimated
04:30AM -11.8232 -51.8900 137° Southeast  Level Estimated
04:31AM -11.9030 -51.8133 137° Southeast  Level Estimated
04:32AM -11.9827 -51.7365 137° Southeast  Level Estimated
04:33AM -12.0624 -51.6598 137° Southeast  Level Estimated
04:34AM -12.1421 -51.5829 137° Southeast  Level Estimated
04:35AM -12.2218 -51.5061 137° Southeast  Level Estimated
04:36AM -12.3014 -51.4291 137° Southeast  Level Estimated
04:37AM -12.3810 -51.3522 137° Southeast  Level Estimated
04:38AM -12.4607 -51.2752 137° Southeast  Level Estimated
04:39AM -12.5402 -51.1981 137° Southeast  Level Estimated
04:40AM -12.6198 -51.1210 137° Southeast  Level Estimated
04:41AM -12.6993 -51.0438 137° Southeast  Level Estimated
04:42AM -12.7788 -50.9666 137° Southeast  Level Estimated
04:43AM -12.8583 -50.8894 137° Southeast  Level Estimated
04:44AM -12.9378 -50.8121 137° Southeast  Level Estimated
04:45AM -13.0173 -50.7347 137° Southeast  Level Estimated
04:46AM -13.0967 -50.6573 136° Southeast  Level Estimated
04:47AM -13.1761 -50.5799 136° Southeast  Level Estimated
04:48AM -13.2555 -50.5024 136° Southeast  Level Estimated
04:49AM -13.3348 -50.4248 136° Southeast  Level Estimated
04:50AM -13.4142 -50.3472 136° Southeast  Level Estimated
04:51AM -13.4935 -50.2696 136° Southeast  Level Estimated
04:52AM -13.5728 -50.1918 136° Southeast  Level Estimated
04:53AM -13.6520 -50.1141 136° Southeast  Level Estimated
04:54AM -13.7313 -50.0363 136° Southeast  Level Estimated
04:55AM -13.8105 -49.9584 136° Southeast  Level Estimated
04:56AM -13.8897 -49.8805 136° Southeast  Level Estimated
04:57AM -13.9688 -49.8025 136° Southeast  Level Estimated
04:58AM -14.0480 -49.7245 136° Southeast  Level Estimated
04:59AM -14.1271 -49.6464 136° Southeast  Level Estimated
04:59AM -15.2320 -48.8000 136° Southeast 356 410 18,000  Level FlightAware
05:00AM -14.2062 -49.5683 136° Southeast  Level Estimated
05:00AM -15.2700 -48.7590 134° Southeast 353 406 17,500  Level FlightAware
05:01AM -15.3310 -48.6950 135° Southeast 351 404 16,600 -1,020 Descending FlightAware
05:01AM -15.3810 -48.6410 134° Southeast 348 400 15,900 -1,200 Descending FlightAware
05:02AM -15.4250 -48.5930 134° Southeast 346 398 14,900 -1,620 Descending FlightAware
05:03AM -15.4700 -48.5440 134° Southeast 343 395 13,800 -1,560 Descending FlightAware
05:04AM -15.5190 -48.4910 134° Southeast 340 391 12,700 -1,560 Descending FlightAware
05:04AM -15.5620 -48.4450 134° Southeast 336 387 11,600 -1,560 Descending FlightAware
05:05AM -15.6100 -48.3930 134° Southeast 333 383 10,500 -1,140 Descending FlightAware
05:06AM -15.6520 -48.3480 134° Southeast 308 354 10,000 -780 Descending FlightAware
05:06AM -15.6750 -48.3240 135° Southeast 293 337 9,700 -600 Descending FlightAware
05:06AM -15.6880 -48.3090 132° Southeast 282 325 9,600 -480 Descending FlightAware
05:07AM -15.7180 -48.2760 133° Southeast 262 302 9,300 -600 Descending FlightAware
05:07AM -15.7390 -48.2540 135° Southeast 249 287 9,000 -960 Descending FlightAware
05:08AM -15.7580 -48.2330 133° Southeast 246 283 8,500 -1,440 Descending FlightAware
05:08AM -15.7840 -48.2050 134° Southeast 243 280 7,700 -1,800 Descending FlightAware
05:09AM -15.8050 -48.1830 135° Southeast 239 275 6,900 -1,080 Descending FlightAware
05:10AM -15.8780 -48.1030 103° East 214 246 5,300 -780 Descending FlightAware
05:11AM -15.8496 -47.9737 103° East  Level Estimated
05:11AM -15.8850 -48.0820 109° East 193 222 5,200  Level FlightAware
05:12AM -15.8840 -48.0460 88° East 193 222 5,100 -540 Descending FlightAware
05:14AM -15.8626 -47.9127 81° East  Level Estimated
05:15AM -15.8626 -47.9127 128° Southeast  Level Estimated
05:15AM -15.8710 -48.0490 128° Southeast 155 178 3,200  Level FlightAware
05:15AM -15.8700 -48.0320 87° East 155 178 3,200  Level FlightAware